Avoca, Wisconsin
Current Conditions -  °F | °C
As of 4:56 PM on Wednesday 26 Nov 2014 (Local Time) from KLNR Reporting Station
Overcast Overcast  
Wind Chill: -4°   Ceiling: 11000
Heat Index: -4°   Visibility: 7mi
Dew Point: -9°   Wind: 3mph
Humidity: 71%   Direction: 270°W
Pressure: 30.19"   Gusts: NA
Location:  43.18°N, 90.32°W
Report Text: KLNR 262256Z AUTO 27003KT 7SM OVC110 M04/M09 A3019 RMK AO2 SLP232 T10441089
Loading
Personal Weather Stations






























Interactive Weather Map New forecast layout! Learn more

10-Day Weather Forecast

Advertisements
Track Severe Weather on mobile